NKS983 KFLL-KMYR
Flight info
| Callsign | NKS983 |
|---|---|
| Flight time | N/A |
| Altitude | 35000 |
| Route | AGERS1 DUCEN Q87 JROSS |
| Aircraft | A321/M-SDE3FGHIRWY/LB1 |
Departure
| Time | N/A |
|---|---|
| Airport | Fort Lauderdale Hollywood International Airport (KFLL) |
Arrival
| Time | 2026-04-24 00:28 |
|---|---|
| Airport | Myrtle Beach International Airport (KMYR) |
| Time | Latitude | Longitude | Altitude | Speed | Heading |
|---|---|---|---|---|---|
| 2026-04-23 23:55 | 31.84669 | -80.87929 | 35077 ft | 455 kts | 12° |
| 2026-04-23 23:55 | 31.87747 | -80.87041 | 35073 ft | 455 kts | 12° |
| 2026-04-23 23:55 | 31.93904 | -80.85264 | 35073 ft | 455 kts | 12° |
| 2026-04-23 23:56 | 32.00052 | -80.83488 | 35095 ft | 455 kts | 12° |
| 2026-04-23 23:56 | 32.06200 | -80.81702 | 35106 ft | 455 kts | 12° |
| 2026-04-23 23:57 | 32.12351 | -80.79911 | 35113 ft | 455 kts | 12° |
| 2026-04-23 23:57 | 32.18503 | -80.78124 | 35119 ft | 455 kts | 12° |
| 2026-04-23 23:58 | 32.24654 | -80.76334 | 35119 ft | 455 kts | 12° |
| 2026-04-23 23:58 | 32.30799 | -80.74547 | 35119 ft | 455 kts | 12° |
| 2026-04-23 23:59 | 32.36937 | -80.72749 | 35094 ft | 455 kts | 12° |
| 2026-04-23 23:59 | 32.40012 | -80.71852 | 34758 ft | 457 kts | 12° |
| 2026-04-23 23:59 | 32.43096 | -80.70952 | 34192 ft | 456 kts | 12° |
| 2026-04-24 00:00 | 32.46178 | -80.70047 | 33568 ft | 456 kts | 12° |
| 2026-04-24 00:00 | 32.49264 | -80.69141 | 32941 ft | 458 kts | 12° |
| 2026-04-24 00:00 | 32.52362 | -80.68232 | 32209 ft | 461 kts | 12° |
| 2026-04-24 00:00 | 32.55490 | -80.67319 | 31460 ft | 464 kts | 12° |
| 2026-04-24 00:01 | 32.58644 | -80.66400 | 30735 ft | 468 kts | 12° |
| 2026-04-24 00:01 | 32.61823 | -80.65478 | 29990 ft | 472 kts | 12° |
| 2026-04-24 00:01 | 32.64986 | -80.64553 | 29182 ft | 475 kts | 12° |
| 2026-04-24 00:01 | 32.68198 | -80.63603 | 28381 ft | 477 kts | 12° |
| 2026-04-24 00:02 | 32.71416 | -80.62645 | 27594 ft | 478 kts | 12° |
| 2026-04-24 00:02 | 32.74649 | -80.61697 | 26834 ft | 479 kts | 12° |
| 2026-04-24 00:02 | 32.77892 | -80.60755 | 26097 ft | 480 kts | 12° |
| 2026-04-24 00:02 | 32.81141 | -80.59815 | 25378 ft | 481 kts | 12° |
| 2026-04-24 00:03 | 32.84398 | -80.58875 | 24679 ft | 482 kts | 12° |
| 2026-04-24 00:03 | 32.87661 | -80.57938 | 24001 ft | 481 kts | 12° |
| 2026-04-24 00:03 | 32.90905 | -80.57014 | 23265 ft | 476 kts | 12° |
| 2026-04-24 00:03 | 32.94108 | -80.56104 | 22474 ft | 472 kts | 12° |
| 2026-04-24 00:04 | 32.97284 | -80.55198 | 21709 ft | 467 kts | 11° |
| 2026-04-24 00:04 | 33.00436 | -80.54300 | 20954 ft | 463 kts | 12° |
| 2026-04-24 00:04 | 33.03554 | -80.53410 | 20217 ft | 459 kts | 12° |
| 2026-04-24 00:04 | 33.06647 | -80.52529 | 19503 ft | 455 kts | 12° |
| 2026-04-24 00:05 | 33.09724 | -80.51657 | 18771 ft | 452 kts | 12° |
| 2026-04-24 00:05 | 33.12776 | -80.50798 | 18065 ft | 449 kts | 12° |
| 2026-04-24 00:05 | 33.15803 | -80.49955 | 17276 ft | 444 kts | 12° |
| 2026-04-24 00:05 | 33.18799 | -80.49141 | 16515 ft | 439 kts | 12° |
| 2026-04-24 00:06 | 33.21765 | -80.48355 | 15771 ft | 434 kts | 12° |
| 2026-04-24 00:06 | 33.24702 | -80.47594 | 15041 ft | 429 kts | 12° |
| 2026-04-24 00:06 | 33.27610 | -80.46860 | 14327 ft | 426 kts | 12° |
| 2026-04-24 00:06 | 33.29526 | -80.46389 | 13861 ft | 423 kts | 12° |
| 2026-04-24 00:07 | 33.32396 | -80.45652 | 13074 ft | 420 kts | 15° |
| 2026-04-24 00:07 | 33.35036 | -80.44220 | 12301 ft | 417 kts | 33° |
| 2026-04-24 00:07 | 33.37695 | -80.40966 | 11309 ft | 414 kts | 58° |
| 2026-04-24 00:07 | 33.38617 | -80.38927 | 10854 ft | 411 kts | 62° |
| 2026-04-24 00:08 | 33.39884 | -80.35875 | 10250 ft | 406 kts | 63° |
| 2026-04-24 00:08 | 33.41095 | -80.32901 | 10032 ft | 388 kts | 63° |
| 2026-04-24 00:08 | 33.42236 | -80.30075 | 9981 ft | 367 kts | 63° |
| 2026-04-24 00:08 | 33.43310 | -80.27407 | 9993 ft | 346 kts | 63° |
| 2026-04-24 00:09 | 33.44324 | -80.24885 | 9997 ft | 327 kts | 63° |
| 2026-04-24 00:09 | 33.45285 | -80.22497 | 9995 ft | 309 kts | 63° |
| 2026-04-24 00:09 | 33.46190 | -80.20238 | 9996 ft | 295 kts | 63° |
| 2026-04-24 00:09 | 33.47072 | -80.18029 | 9999 ft | 293 kts | 63° |
| 2026-04-24 00:10 | 33.47949 | -80.15831 | 9955 ft | 293 kts | 63° |
| 2026-04-24 00:10 | 33.48826 | -80.13638 | 9793 ft | 291 kts | 62° |
| 2026-04-24 00:10 | 33.49701 | -80.11452 | 9637 ft | 291 kts | 63° |
| 2026-04-24 00:10 | 33.50576 | -80.09270 | 9471 ft | 290 kts | 62° |
| 2026-04-24 00:11 | 33.51450 | -80.07095 | 9324 ft | 290 kts | 62° |
| 2026-04-24 00:11 | 33.52322 | -80.04920 | 9164 ft | 289 kts | 63° |
| 2026-04-24 00:11 | 33.53193 | -80.02744 | 9012 ft | 289 kts | 63° |
| 2026-04-24 00:11 | 33.54061 | -80.00577 | 8858 ft | 288 kts | 62° |
| 2026-04-24 00:12 | 33.54918 | -79.98441 | 8706 ft | 288 kts | 62° |
| 2026-04-24 00:12 | 33.55799 | -79.96251 | 8552 ft | 288 kts | 62° |
| 2026-04-24 00:12 | 33.56653 | -79.94124 | 8400 ft | 287 kts | 62° |
| 2026-04-24 00:12 | 33.57519 | -79.91963 | 8251 ft | 287 kts | 63° |
| 2026-04-24 00:13 | 33.58381 | -79.89811 | 8105 ft | 286 kts | 62° |
| 2026-04-24 00:13 | 33.59244 | -79.87659 | 7952 ft | 286 kts | 63° |
| 2026-04-24 00:13 | 33.60107 | -79.85515 | 7812 ft | 285 kts | 63° |
| 2026-04-24 00:13 | 33.60973 | -79.83373 | 7659 ft | 285 kts | 63° |
| 2026-04-24 00:14 | 33.61839 | -79.81233 | 7516 ft | 285 kts | 62° |
| 2026-04-24 00:14 | 33.62703 | -79.79098 | 7358 ft | 284 kts | 62° |
| 2026-04-24 00:14 | 33.63568 | -79.76966 | 7216 ft | 284 kts | 62° |
| 2026-04-24 00:14 | 33.64432 | -79.74837 | 7073 ft | 283 kts | 63° |
| 2026-04-24 00:15 | 33.65296 | -79.72711 | 6927 ft | 283 kts | 63° |
| 2026-04-24 00:15 | 33.66160 | -79.70588 | 6785 ft | 283 kts | 62° |
| 2026-04-24 00:15 | 33.67026 | -79.68473 | 6634 ft | 282 kts | 62° |
| 2026-04-24 00:15 | 33.67892 | -79.66361 | 6497 ft | 282 kts | 62° |
| 2026-04-24 00:16 | 33.68756 | -79.64257 | 6348 ft | 281 kts | 62° |
| 2026-04-24 00:16 | 33.69628 | -79.62152 | 6195 ft | 281 kts | 62° |
| 2026-04-24 00:16 | 33.70498 | -79.60055 | 6043 ft | 281 kts | 62° |
| 2026-04-24 00:16 | 33.71369 | -79.57956 | 5888 ft | 281 kts | 63° |
| 2026-04-24 00:17 | 33.72239 | -79.55860 | 5740 ft | 280 kts | 62° |
| 2026-04-24 00:17 | 33.73110 | -79.53772 | 5589 ft | 280 kts | 62° |
| 2026-04-24 00:17 | 33.73981 | -79.51679 | 5440 ft | 279 kts | 62° |
| 2026-04-24 00:17 | 33.74849 | -79.49594 | 5287 ft | 279 kts | 62° |
| 2026-04-24 00:18 | 33.75723 | -79.47512 | 5147 ft | 278 kts | 62° |
| 2026-04-24 00:18 | 33.76582 | -79.45472 | 4997 ft | 277 kts | 62° |
| 2026-04-24 00:18 | 33.77454 | -79.43402 | 4853 ft | 277 kts | 62° |
| 2026-04-24 00:18 | 33.78328 | -79.41333 | 4704 ft | 278 kts | 62° |
| 2026-04-24 00:19 | 33.79207 | -79.39268 | 4551 ft | 277 kts | 62° |
| 2026-04-24 00:19 | 33.80089 | -79.37205 | 4405 ft | 277 kts | 62° |
| 2026-04-24 00:19 | 33.80979 | -79.35138 | 4253 ft | 277 kts | 62° |
| 2026-04-24 00:19 | 33.81865 | -79.33088 | 4107 ft | 276 kts | 62° |
| 2026-04-24 00:20 | 33.82751 | -79.31041 | 3959 ft | 276 kts | 62° |
| 2026-04-24 00:20 | 33.83640 | -79.29002 | 3817 ft | 275 kts | 62° |
| 2026-04-24 00:20 | 33.84533 | -79.26966 | 3671 ft | 275 kts | 62° |
| 2026-04-24 00:20 | 33.85425 | -79.24932 | 3517 ft | 275 kts | 62° |
| 2026-04-24 00:21 | 33.86307 | -79.22923 | 3382 ft | 275 kts | 62° |
| 2026-04-24 00:21 | 33.87197 | -79.20897 | 3233 ft | 274 kts | 62° |
| 2026-04-24 00:21 | 33.88092 | -79.18873 | 3089 ft | 274 kts | 63° |
| 2026-04-24 00:21 | 33.88696 | -79.16725 | 2960 ft | 269 kts | 78° |
| 2026-04-24 00:22 | 33.89058 | -79.14565 | 2834 ft | 258 kts | 81° |
| 2026-04-24 00:22 | 33.89388 | -79.12489 | 2712 ft | 247 kts | 81° |
| 2026-04-24 00:22 | 33.89691 | -79.10498 | 2611 ft | 239 kts | 87° |
| 2026-04-24 00:22 | 33.89536 | -79.08552 | 2486 ft | 232 kts | 105° |
| 2026-04-24 00:23 | 33.89159 | -79.06677 | 2369 ft | 229 kts | 109° |
| 2026-04-24 00:23 | 33.88754 | -79.04821 | 2239 ft | 229 kts | 109° |
| 2026-04-24 00:23 | 33.88239 | -79.03024 | 2121 ft | 226 kts | 117° |
| 2026-04-24 00:23 | 33.87635 | -79.01285 | 2023 ft | 225 kts | 118° |
| 2026-04-24 00:24 | 33.87018 | -78.99555 | 1991 ft | 224 kts | 121° |
| 2026-04-24 00:24 | 33.86112 | -78.98079 | 2001 ft | 217 kts | 143° |
| 2026-04-24 00:24 | 33.84868 | -78.97131 | 1998 ft | 210 kts | 163° |
| 2026-04-24 00:24 | 33.83466 | -78.96706 | 2000 ft | 207 kts | 171° |
| 2026-04-24 00:25 | 33.82055 | -78.96353 | 2002 ft | 207 kts | 171° |
| 2026-04-24 00:25 | 33.80646 | -78.96000 | 2019 ft | 207 kts | 172° |
| 2026-04-24 00:25 | 33.79238 | -78.95650 | 2025 ft | 207 kts | 171° |
| 2026-04-24 00:25 | 33.77849 | -78.95301 | 1767 ft | 201 kts | 172° |
| 2026-04-24 00:26 | 33.76508 | -78.94950 | 1526 ft | 193 kts | 170° |
| 2026-04-24 00:26 | 33.75254 | -78.94571 | 1328 ft | 178 kts | 172° |
| 2026-04-24 00:26 | 33.74089 | -78.94342 | 1116 ft | 159 kts | 175° |
| 2026-04-24 00:26 | 33.73062 | -78.94094 | 820 ft | 140 kts | 171° |
| 2026-04-24 00:27 | 33.72158 | -78.93863 | 604 ft | 135 kts | 171° |
| 2026-04-24 00:27 | 33.71249 | -78.93631 | 417 ft | 132 kts | 174° |
| 2026-04-24 00:27 | 33.70366 | -78.93428 | 294 ft | 127 kts | 172° |
| 2026-04-24 00:27 | 33.69497 | -78.93212 | 115 ft | 129 kts | 171° |
| 2026-04-24 00:28 | 33.68643 | -78.92996 | 34 ft | 113 kts | 171° |
| 2026-04-24 00:28 | 33.68036 | -78.92849 | 32 ft | 64 kts | 168° |
| 2026-04-24 00:28 | 33.67728 | -78.92772 | 31 ft | 29 kts | 165° |
| 2026-04-24 00:28 | 33.67574 | -78.92672 | 30 ft | 23 kts | 141° |
| 2026-04-24 00:29 | 33.67448 | -78.92547 | 31 ft | 24 kts | 138° |
| 2026-04-24 00:29 | 33.67347 | -78.92420 | 31 ft | 16 kts | 112° |
| 2026-04-24 00:29 | 33.67406 | -78.92343 | 31 ft | 15 kts | 353° |
| 2026-04-24 00:29 | 33.67517 | -78.92367 | 31 ft | 17 kts | 346° |
| 2026-04-24 00:30 | 33.67637 | -78.92397 | 31 ft | 18 kts | 349° |
| 2026-04-24 00:30 | 33.67760 | -78.92455 | 31 ft | 20 kts | 332° |
| 2026-04-24 00:30 | 33.67867 | -78.92504 | 32 ft | 10 kts | 4° |
| 2026-04-24 00:30 | 33.67936 | -78.92470 | 32 ft | 10 kts | 34° |
| 2026-04-24 00:31 | 33.67969 | -78.92439 | 32 ft | 2 kts | 38° |
| 2026-04-24 00:31 | 33.67974 | -78.92435 | 32 ft | 0 kts | 37° |